createdAt,value
2022-12-09T00:03:45.344Z,8.23
2022-12-09T00:08:48.465Z,8.07
2022-12-09T00:13:51.483Z,6.95
2022-12-09T00:18:53.764Z,6.38
2022-12-09T00:23:57.754Z,5.75
2022-12-09T00:29:00.631Z,6.63
2022-12-09T00:34:06.081Z,6.38
2022-12-09T00:39:08.628Z,5.35
2022-12-09T00:44:10.924Z,5.72
2022-12-09T00:49:12.982Z,6.50
2022-12-09T00:54:15.240Z,8.50
2022-12-09T00:59:17.615Z,7.13
2022-12-09T01:04:20.056Z,7.60
2022-12-09T01:09:24.907Z,6.30
2022-12-09T01:14:27.372Z,6.22
2022-12-09T01:19:29.238Z,6.15
2022-12-09T01:24:31.472Z,6.35
2022-12-09T01:29:33.964Z,4.82
2022-12-09T01:34:36.435Z,5.65
2022-12-09T01:39:38.687Z,5.05
2022-12-09T01:45:19.095Z,5.38
2022-12-09T01:50:21.333Z,6.00
2022-12-09T01:55:23.576Z,14.30
2022-12-09T02:00:25.769Z,7.57
2022-12-09T02:05:30.377Z,7.07
2022-12-09T02:10:35.970Z,6.40
2022-12-09T02:15:46.108Z,6.00
2022-12-09T02:20:57.461Z,9.00
2022-12-09T02:31:27.305Z,5.03
2022-12-09T02:36:36.312Z,6.45
2022-12-09T02:41:41.825Z,7.03
2022-12-09T02:46:44.459Z,8.32
2022-12-09T02:51:48.830Z,7.60
2022-12-09T02:56:55.727Z,9.98
2022-12-09T03:02:06.772Z,6.55
2022-12-09T03:07:25.350Z,7.18
2022-12-09T03:12:30.575Z,8.70
2022-12-09T03:17:37.815Z,5.65
2022-12-09T03:22:43.270Z,5.60
2022-12-09T03:28:21.346Z,7.40
2022-12-09T03:33:25.325Z,5.82
2022-12-09T03:38:31.152Z,5.10
2022-12-09T03:43:38.231Z,5.15
2022-12-09T03:48:40.215Z,6.72
2022-12-09T03:53:48.662Z,6.20
2022-12-09T03:58:55.415Z,5.93
2022-12-09T04:03:58.317Z,5.45
2022-12-09T04:09:02.570Z,5.75
2022-12-09T04:14:08.118Z,5.35
2022-12-09T04:19:14.541Z,5.13
2022-12-09T04:24:16.795Z,5.13
2022-12-09T04:29:19.006Z,5.85
2022-12-09T04:34:21.390Z,5.40
2022-12-09T04:39:23.605Z,5.05
2022-12-09T04:44:26.047Z,4.82
2022-12-09T04:49:28.881Z,5.82
2022-12-09T04:54:30.681Z,6.63
2022-12-09T04:59:33.076Z,5.90
2022-12-09T05:04:35.465Z,6.22
2022-12-09T05:09:38.396Z,5.80
2022-12-09T05:14:40.597Z,5.72
2022-12-09T05:19:43.118Z,8.07
2022-12-09T05:24:46.882Z,10.77
2022-12-09T05:29:49.485Z,8.32
2022-12-09T05:34:51.808Z,8.23
2022-12-09T05:39:54.145Z,11.15
2022-12-09T05:44:56.393Z,11.25
2022-12-09T05:50:02.973Z,9.82
2022-12-09T05:55:09.570Z,10.07
2022-12-09T06:00:12.896Z,9.35
2022-12-09T06:05:15.687Z,8.20
2022-12-09T06:10:18.745Z,7.00
2022-12-09T06:15:22.058Z,9.73
2022-12-09T06:20:26.319Z,7.88
2022-12-09T06:25:28.586Z,7.60
2022-12-09T06:30:31.818Z,7.40
2022-12-09T06:35:34.496Z,9.25
2022-12-09T06:40:41.964Z,8.52
2022-12-09T06:45:44.553Z,10.68
2022-12-09T06:50:46.474Z,8.48
2022-12-09T06:55:48.931Z,9.32
2022-12-09T07:00:51.227Z,7.97
2022-12-09T07:05:54.479Z,10.45
2022-12-09T07:10:57.258Z,16.25
2022-12-09T07:15:59.792Z,15.85
2022-12-09T07:21:18.865Z,15.50
2022-12-09T07:26:21.436Z,13.32
2022-12-09T07:31:25.844Z,15.18
2022-12-09T07:36:30.327Z,13.98
2022-12-09T07:41:33.109Z,13.82
2022-12-09T07:46:35.672Z,12.30
2022-12-09T07:51:37.640Z,12.38
2022-12-09T07:56:40.762Z,12.95
2022-12-09T08:01:43.176Z,13.68
2022-12-09T08:06:45.560Z,12.63
2022-12-09T08:11:48.005Z,13.65
2022-12-09T08:16:50.819Z,11.25
2022-12-09T08:21:54.943Z,12.55
2022-12-09T08:26:57.916Z,14.23
2022-12-09T08:31:59.999Z,11.35
2022-12-09T08:37:03.078Z,14.68
2022-12-09T08:42:05.533Z,13.45
2022-12-09T08:47:08.219Z,9.48
2022-12-09T08:52:10.795Z,9.75
2022-12-09T08:57:13.008Z,9.18
2022-12-09T09:02:15.411Z,9.23
2022-12-09T09:07:17.972Z,14.18
2022-12-09T09:12:20.891Z,12.60
2022-12-09T09:17:23.892Z,10.57
2022-12-09T09:22:27.443Z,10.90
2022-12-09T09:27:29.816Z,10.75
2022-12-09T09:32:32.983Z,10.80
2022-12-09T09:37:35.640Z,11.27
2022-12-09T09:42:47.960Z,10.35
2022-12-09T09:47:59.256Z,10.75
2022-12-09T09:53:12.191Z,11.95
2022-12-09T09:58:24.706Z,11.15
2022-12-09T10:03:47.603Z,11.75
2022-12-09T10:09:10.763Z,16.30
2022-12-09T10:14:35.241Z,19.17
2022-12-09T10:19:43.639Z,18.20
2022-12-09T10:24:52.474Z,15.85
2022-12-09T10:29:59.189Z,16.95
2022-12-09T10:35:02.445Z,19.40
2022-12-09T10:40:11.178Z,12.98
2022-12-09T10:45:13.567Z,14.77
2022-12-09T10:50:27.410Z,12.65
2022-12-09T10:55:39.846Z,14.95
2022-12-09T11:00:42.060Z,13.57
2022-12-09T11:05:44.491Z,13.85
2022-12-09T11:10:50.287Z,12.70
2022-12-09T11:16:01.585Z,15.50
2022-12-09T11:21:07.206Z,14.45
2022-12-09T11:26:31.079Z,14.98
2022-12-09T11:31:38.152Z,16.60
2022-12-09T11:36:46.709Z,15.18
2022-12-09T11:42:16.443Z,13.00
2022-12-09T11:47:57.740Z,16.05
2022-12-09T11:53:11.638Z,13.63
2022-12-09T11:58:26.121Z,15.05
2022-12-09T12:03:40.509Z,15.05
2022-12-09T12:08:46.616Z,15.63
2022-12-09T12:13:50.801Z,14.35
2022-12-09T12:19:07.441Z,15.63
2022-12-09T12:24:33.445Z,14.70
2022-12-09T12:30:00.865Z,15.55
2022-12-09T12:35:36.903Z,16.30
2022-12-09T12:41:03.561Z,16.67
2022-12-09T12:46:27.017Z,15.93
2022-12-09T12:51:34.871Z,17.42
2022-12-09T12:56:51.338Z,19.30
2022-12-09T13:02:07.802Z,18.80
2022-12-09T13:07:40.040Z,18.52
2022-12-09T13:12:54.371Z,19.77
2022-12-09T13:17:56.367Z,18.30
2022-12-09T13:23:14.456Z,19.65
2022-12-09T13:28:38.896Z,18.20
2022-12-09T13:34:17.460Z,19.08
2022-12-09T13:39:40.803Z,22.00
2022-12-09T13:44:42.815Z,20.98
2022-12-09T13:49:57.323Z,21.02
2022-12-09T13:54:59.523Z,20.25
2022-12-09T14:00:06.536Z,23.23
2022-12-09T14:05:20.996Z,20.75
2022-12-09T14:10:39.649Z,21.83
2022-12-09T14:15:41.807Z,20.23
2022-12-09T14:20:43.959Z,20.33
2022-12-09T14:25:51.121Z,19.35
2022-12-09T14:30:59.772Z,20.60
2022-12-09T14:36:14.151Z,19.52
2022-12-09T14:41:25.752Z,20.33
2022-12-09T14:46:31.103Z,21.73
2022-12-09T14:51:38.684Z,20.25
2022-12-09T14:56:46.748Z,22.02
2022-12-09T15:02:00.779Z,21.42
2022-12-09T15:07:11.534Z,20.48
2022-12-09T15:12:13.276Z,23.92
2022-12-09T15:17:28.862Z,22.08
2022-12-09T15:22:32.191Z,21.42
2022-12-09T15:27:33.985Z,25.33
2022-12-09T15:32:39.469Z,24.45
2022-12-09T15:37:41.813Z,28.23
2022-12-09T15:42:47.494Z,29.73
2022-12-09T15:48:02.277Z,24.65
2022-12-09T15:53:04.491Z,27.73
2022-12-09T15:58:10.580Z,26.52
2022-12-09T16:03:17.203Z,25.88
2022-12-09T16:08:19.602Z,24.48
2022-12-09T16:13:21.445Z,23.13
2022-12-09T16:18:49.661Z,23.60
2022-12-09T16:23:54.676Z,21.10
2022-12-09T16:29:05.797Z,22.60
2022-12-09T16:34:20.126Z,23.83
2022-12-09T16:39:24.878Z,25.33
2022-12-09T16:44:35.157Z,24.42
2022-12-09T16:49:37.406Z,25.42
2022-12-09T16:54:39.530Z,24.63
2022-12-09T16:59:42.699Z,22.77
2022-12-09T17:04:44.606Z,20.38
2022-12-09T17:09:46.813Z,21.08
2022-12-09T17:14:49.115Z,16.58
2022-12-09T17:19:51.268Z,18.80
2022-12-09T17:24:53.403Z,18.08
2022-12-09T17:29:55.497Z,16.58
2022-12-09T17:34:57.985Z,17.85
2022-12-09T17:40:03.517Z,16.98
2022-12-09T17:45:08.206Z,23.92
2022-12-09T17:50:11.001Z,24.67
2022-12-09T17:55:13.654Z,24.90
2022-12-09T18:00:15.953Z,21.63
2022-12-09T18:05:18.116Z,22.95
2022-12-09T18:10:20.313Z,25.45
2022-12-09T18:15:22.433Z,25.35
2022-12-09T18:20:24.544Z,21.48
2022-12-09T18:25:26.713Z,19.83
2022-12-09T18:30:28.933Z,19.92
2022-12-09T18:35:31.082Z,20.30
2022-12-09T18:40:33.351Z,20.40
2022-12-09T18:45:35.506Z,21.42
2022-12-09T18:50:37.729Z,21.40
2022-12-09T18:55:43.523Z,22.05
2022-12-09T19:00:45.734Z,24.00
2022-12-09T19:05:47.431Z,22.85
2022-12-09T19:10:55.255Z,21.40
2022-12-09T19:15:59.023Z,20.75
2022-12-09T19:21:09.067Z,19.40
2022-12-09T19:26:13.117Z,24.20
2022-12-09T19:31:25.414Z,21.92
2022-12-09T19:36:28.718Z,21.67
2022-12-09T19:41:30.410Z,17.42
2022-12-09T19:46:33.059Z,17.92
2022-12-09T19:51:34.921Z,21.05
2022-12-09T19:56:37.150Z,21.20
2022-12-09T20:01:42.763Z,23.35
2022-12-09T20:06:45.742Z,22.83
2022-12-09T20:11:47.872Z,16.73
2022-12-09T20:16:49.832Z,14.35
2022-12-09T20:21:51.629Z,24.75
2022-12-09T20:26:53.440Z,17.25
2022-12-09T20:31:55.254Z,16.20
2022-12-09T20:36:57.382Z,14.38
2022-12-09T20:41:59.681Z,21.50
2022-12-09T20:47:01.832Z,17.77
2022-12-09T20:52:04.038Z,14.52
2022-12-09T20:57:06.186Z,13.63
2022-12-09T21:02:13.857Z,17.42
2022-12-09T21:07:16.496Z,17.75
2022-12-09T21:12:18.633Z,17.85
2022-12-09T21:17:20.729Z,16.25
2022-12-09T21:22:22.905Z,18.23
2022-12-09T21:27:25.110Z,17.17
2022-12-09T21:32:27.088Z,13.70
2022-12-09T21:37:30.167Z,12.75
2022-12-09T21:42:31.845Z,13.07
2022-12-09T21:47:33.679Z,13.40
2022-12-09T21:52:35.791Z,13.52
2022-12-09T21:57:37.960Z,13.38
2022-12-09T22:02:41.346Z,13.55
2022-12-09T22:07:43.526Z,14.40
2022-12-09T22:12:45.718Z,16.08
2022-12-09T22:17:47.659Z,16.63
2022-12-09T22:22:49.833Z,16.45
2022-12-09T22:27:52.058Z,15.05
2022-12-09T22:32:53.753Z,14.40
2022-12-09T22:37:58.134Z,13.25
2022-12-09T22:43:01.390Z,14.90
2022-12-09T22:48:03.778Z,13.88
2022-12-09T22:53:05.493Z,12.82
2022-12-09T22:58:07.667Z,14.75
2022-12-09T23:03:09.852Z,14.50
2022-12-09T23:08:12.512Z,13.70
2022-12-09T23:13:14.671Z,15.57
2022-12-09T23:18:16.769Z,20.63
2022-12-09T23:23:19.607Z,14.88
2022-12-09T23:28:21.751Z,16.35
2022-12-09T23:33:23.817Z,16.00
2022-12-09T23:38:25.550Z,16.08
2022-12-09T23:43:31.277Z,15.27
2022-12-09T23:48:33.483Z,15.13
2022-12-09T23:53:35.590Z,16.70
2022-12-09T23:58:37.735Z,17.92
